Time;durP1;ratioP1;P1;durP2;ratioP2;P2;SDS_P1;SDS_P2;PMS_P1;PMS_P2;Temp;Humidity;BMP_temperature;BMP_pressure;BME280_temperature;BME280_humidity;BME280_pressure;Samples;Min_cycle;Max_cycle;Signal;HPM_P1;HPM_P2
2022/10/18 00:01:24;;;;;;;25.23;12.80;;;;;;;9.53;55.50;100885.55;1755476;81;21311;-42
2022/10/18 00:03:51;;;;;;;22.00;13.08;;;;;;;9.52;55.56;100876.63;1755286;81;21014;-42
2022/10/18 00:06:18;;;;;;;22.32;12.78;;;;;;;9.53;55.63;100874.72;1755782;81;21026;-42
2022/10/18 00:08:46;;;;;;;23.40;13.70;;;;;;;9.55;55.85;100869.77;1755307;81;21010;-42
2022/10/18 00:11:13;;;;;;;23.62;12.80;;;;;;;9.54;55.61;100862.75;1755376;81;21094;-42
2022/10/18 00:13:40;;;;;;;26.57;12.63;;;;;;;9.54;55.74;100864.91;1755419;81;21306;-42
2022/10/18 00:16:11;;;;;;;19.77;12.05;;;;;;;9.54;55.70;100855.43;1755432;81;21011;-42
2022/10/18 00:18:40;;;;;;;25.62;12.80;;;;;;;9.54;56.02;100851.92;1755841;81;21026;-42
2022/10/18 00:21:16;;;;;;;27.85;13.10;;;;;;;9.54;55.86;100860.84;1755520;81;20986;-42
2022/10/18 00:23:46;;;;;;;21.87;12.50;;;;;;;9.53;55.71;100853.06;1755617;81;21097;-42
2022/10/18 00:26:19;;;;;;;20.70;12.68;;;;;;;9.50;55.88;100846.34;1755664;81;21183;-42
2022/10/18 00:29:00;;;;;;;24.40;13.20;;;;;;;9.49;55.91;100849.36;1755720;81;20970;-42
2022/10/18 00:31:34;;;;;;;22.20;12.88;;;;;;;9.44;56.00;100846.83;1755735;81;21521;-42
2022/10/18 00:34:06;;;;;;;19.98;12.85;;;;;;;9.40;55.83;100840.43;1755792;81;21568;-42
2022/10/18 00:36:33;;;;;;;23.83;13.05;;;;;;;9.36;55.93;100841.63;1755599;81;21050;-42
2022/10/18 00:39:01;;;;;;;25.00;13.85;;;;;;;9.34;55.94;100849.28;1755506;81;21153;-42
2022/10/18 00:41:30;;;;;;;23.95;13.35;;;;;;;9.33;55.89;100846.87;1755500;81;21058;-42
2022/10/18 00:44:07;;;;;;;21.27;12.82;;;;;;;9.32;55.93;100845.28;1751382;81;21512;-42
2022/10/18 00:46:37;;;;;;;24.92;13.55;;;;;;;9.29;55.92;100836.45;1745908;82;21058;-42
2022/10/18 00:49:21;;;;;;;25.82;13.20;;;;;;;9.23;56.08;100843.11;1750389;82;21055;-42
2022/10/18 00:51:56;;;;;;;21.73;12.23;;;;;;;9.18;56.14;100844.60;1750253;82;21098;-42
2022/10/18 00:54:23;;;;;;;24.02;12.90;;;;;;;9.12;56.32;100837.98;1749893;82;20970;-42
2022/10/18 00:56:51;;;;;;;22.52;13.00;;;;;;;9.11;56.35;100839.08;1749659;82;21288;-42
2022/10/18 00:59:18;;;;;;;18.87;12.50;;;;;;;8.80;56.40;100795.07;1749673;82;21046;-42
2022/10/18 01:01:45;;;;;;;23.67;13.10;;;;;;;9.07;56.45;100833.27;1720256;82;21062;-42
2022/10/18 01:04:13;;;;;;;19.42;12.68;;;;;;;9.04;56.49;100827.94;1749635;82;21381;-42
2022/10/18 01:07:14;;;;;;;22.37;13.45;;;;;;;9.03;56.52;100829.04;1749776;82;21011;-42
2022/10/18 01:10:06;;;;;;;25.23;13.58;;;;;;;9.05;56.50;100833.56;1749849;82;20959;-42
2022/10/18 01:13:00;;;;;;;21.73;12.13;;;;;;;9.05;56.42;100829.50;1749745;82;21543;-42
2022/10/18 01:15:37;;;;;;;22.82;12.53;;;;;;;9.04;56.49;100823.08;1749853;82;21075;-42
2022/10/18 01:18:22;;;;;;;25.72;12.95;;;;;;;9.02;56.56;100819.32;1749830;82;21183;-42
2022/10/18 01:21:10;;;;;;;22.48;13.32;;;;;;;9.04;56.56;100821.17;1749590;81;20939;-42
2022/10/18 01:23:49;;;;;;;23.27;13.45;;;;;;;9.06;56.54;100822.98;1750619;82;21084;-42
2022/10/18 01:27:04;;;;;;;18.35;12.93;;;;;;;8.99;56.74;100819.96;1750955;81;21076;-42
2022/10/18 01:29:46;;;;;;;22.67;12.45;;;;;;;8.98;56.81;100820.27;1744428;81;21030;-42
2022/10/18 01:32:28;;;;;;;23.83;12.53;;;;;;;8.93;57.40;100813.09;1751391;82;21132;-42
2022/10/18 01:35:02;;;;;;;21.12;12.43;;;;;;;8.93;57.48;100802.27;1751281;82;20997;-42
2022/10/18 01:37:28;;;;;;;25.75;13.22;;;;;;;8.90;57.35;100803.46;1751694;82;20922;-42
2022/10/18 01:39:56;;;;;;;22.02;12.10;;;;;;;8.86;57.37;100801.14;1751602;82;21068;-42
2022/10/18 01:42:24;;;;;;;24.40;13.85;;;;;;;8.84;57.44;100799.30;1751410;82;21544;-42
2022/10/18 01:44:51;;;;;;;24.80;12.95;;;;;;;8.86;57.23;100791.67;1756853;81;21955;-42
2022/10/18 01:47:19;;;;;;;25.97;14.03;;;;;;;8.83;57.25;100796.34;1756936;81;20988;-42
2022/10/18 01:49:47;;;;;;;23.22;12.98;;;;;;;8.78;57.20;100790.52;1756934;81;21499;-42
2022/10/18 01:52:15;;;;;;;26.60;13.95;;;;;;;8.75;57.21;100786.30;1757088;81;21763;-42
2022/10/18 01:54:47;;;;;;;23.18;13.28;;;;;;;8.72;57.21;100781.74;1756952;81;20997;-42
2022/10/18 01:57:25;;;;;;;23.02;12.68;;;;;;;8.72;57.17;100780.94;1757142;81;21286;-42
2022/10/18 02:00:03;;;;;;;23.35;12.60;;;;;;;8.68;57.27;100779.42;1756628;81;21081;-42
2022/10/18 02:03:04;;;;;;;23.87;13.48;;;;;;;8.65;57.31;100780.61;1755994;81;21052;-42
2022/10/18 02:05:51;;;;;;;21.97;12.88;;;;;;;8.64;57.32;100777.11;1756678;81;21830;-42
2022/10/18 02:08:34;;;;;;;21.45;12.75;;;;;;;8.63;57.28;100774.70;1756786;81;21079;-42
2022/10/18 02:11:07;;;;;;;23.20;13.22;;;;;;;8.61;57.26;100775.59;1756575;81;21121;-42
2022/10/18 02:13:47;;;;;;;20.68;12.28;;;;;;;8.58;57.33;100768.09;1756775;81;20985;-42
2022/10/18 02:16:21;;;;;;;;;;;;;;;8.57;57.33;100766.48;1759314;81;20994;-42
2022/10/18 02:19:06;;;;;;;19.85;12.05;;;;;;;8.54;57.40;100768.47;1739842;81;20154;-42
2022/10/18 02:21:33;;;;;;;22.35;13.32;;;;;;;8.45;57.65;100765.73;1726738;83;21092;-42
2022/10/18 02:24:00;;;;;;;22.98;12.73;;;;;;;8.51;57.66;100765.05;1710093;83;21224;-42
2022/10/18 02:26:27;;;;;;;22.87;12.40;;;;;;;8.53;57.68;100757.41;1726619;83;21013;-42
2022/10/18 02:28:54;;;;;;;20.40;12.88;;;;;;;8.53;57.59;100753.35;1726585;82;20980;-42
2022/10/18 02:31:32;;;;;;;23.90;13.38;;;;;;;8.52;57.61;100749.85;1726671;83;21004;-42
2022/10/18 02:34:25;;;;;;;19.50;11.93;;;;;;;8.51;57.57;100747.48;1726703;83;21072;-42
2022/10/18 02:36:57;;;;;;;21.97;12.98;;;;;;;8.49;57.67;100749.69;1726051;81;21161;-42
2022/10/18 02:39:34;;;;;;;20.90;11.68;;;;;;;8.44;57.58;100749.27;1726511;83;20980;-42
2022/10/18 02:42:05;;;;;;;20.77;12.00;;;;;;;8.41;57.68;100745.05;1726472;82;20933;-42
2022/10/18 02:44:33;;;;;;;24.27;12.23;;;;;;;8.34;57.71;100737.92;1721834;82;20980;-42
2022/10/18 02:47:01;;;;;;;23.18;13.78;;;;;;;8.29;57.83;100742.88;1726779;81;21324;-42
2022/10/18 02:49:28;;;;;;;22.75;12.53;;;;;;;8.27;57.95;100741.06;1726870;83;21232;-42
2022/10/18 02:51:55;;;;;;;21.27;11.78;;;;;;;8.26;57.95;100732.16;1726686;83;21025;-42
2022/10/18 02:54:23;;;;;;;20.82;12.75;;;;;;;8.23;58.01;100735.45;1726935;83;21005;-42
2022/10/18 02:56:49;;;;;;;21.30;12.20;;;;;;;8.21;58.11;100730.94;1726614;83;21567;-42
2022/10/18 02:59:16;;;;;;;20.40;12.03;;;;;;;8.20;58.14;100727.18;1726858;83;21025;-42
2022/10/18 03:01:43;;;;;;;23.25;12.43;;;;;;;8.18;58.18;100724.78;1726798;82;21543;-42
2022/10/18 03:04:11;;;;;;;22.02;13.32;;;;;;;8.18;58.22;100722.08;1726668;83;20972;-42
2022/10/18 03:06:38;;;;;;;23.83;12.63;;;;;;;8.19;58.24;100712.88;1726533;83;21510;-42
2022/10/18 03:09:05;;;;;;;23.05;12.45;;;;;;;8.18;58.29;100713.98;1726634;83;21027;-42
2022/10/18 03:11:32;;;;;;;23.65;12.03;;;;;;;8.20;58.33;100715.83;1726570;82;21024;-42
2022/10/18 03:13:58;;;;;;;21.20;12.47;;;;;;;8.21;58.30;100713.92;1726598;81;21215;-42
2022/10/18 03:16:27;;;;;;;20.55;12.68;;;;;;;8.16;58.40;100710.80;1726552;83;20903;-42
2022/10/18 03:18:55;;;;;;;24.47;12.58;;;;;;;8.13;58.49;100705.23;1726757;83;21539;-42
2022/10/18 03:21:22;;;;;;;20.68;12.63;;;;;;;8.12;58.48;100707.14;1726659;83;21025;-42
2022/10/18 03:23:48;;;;;;;23.70;13.20;;;;;;;8.12;58.43;100696.88;1726441;83;21009;-42
2022/10/18 03:26:17;;;;;;;20.52;12.20;;;;;;;8.09;58.47;100693.43;1726543;83;21436;-42
2022/10/18 03:28:43;;;;;;;20.43;12.33;;;;;;;8.07;58.53;100692.41;1726314;83;21483;-42
2022/10/18 03:31:10;;;;;;;23.10;12.10;;;;;;;8.04;58.52;100688.95;1726540;83;21045;-42
2022/10/18 03:33:37;;;;;;;18.10;11.45;;;;;;;8.02;58.56;100697.14;1726525;81;20976;-42
2022/10/18 03:36:06;;;;;;;20.70;11.97;;;;;;;8.00;58.76;100689.89;1726507;83;20965;-42
2022/10/18 03:38:33;;;;;;;20.88;12.40;;;;;;;7.99;58.77;100691.80;1726555;83;21206;-42
2022/10/18 03:41:00;;;;;;;21.25;11.78;;;;;;;8.02;58.79;100693.09;1726445;83;21104;-42
2022/10/18 03:43:27;;;;;;;18.82;11.97;;;;;;;8.02;58.70;100689.84;1725238;82;21004;-42
2022/10/18 03:45:54;;;;;;;24.15;13.40;;;;;;;8.02;58.69;100692.55;1713635;83;21037;-42
2022/10/18 03:48:21;;;;;;;21.90;12.47;;;;;;;8.03;58.62;100696.84;1713922;83;21066;-42
2022/10/18 03:50:48;;;;;;;23.38;12.07;;;;;;;8.01;58.71;100691.48;1713710;83;21283;-42
2022/10/18 03:53:15;;;;;;;19.98;12.45;;;;;;;8.01;58.67;100685.54;1713860;82;21088;-42
2022/10/18 03:55:41;;;;;;;26.87;12.30;;;;;;;8.01;58.64;100683.39;1713963;83;20922;-42
2022/10/18 03:58:08;;;;;;;20.68;11.90;;;;;;;8.02;58.66;100678.23;1713879;82;21029;-42
2022/10/18 04:00:36;;;;;;;21.62;11.63;;;;;;;8.00;58.69;100677.19;1713897;82;21017;-42
2022/10/18 04:03:03;;;;;;;21.77;11.93;;;;;;;8.01;58.72;100682.04;1714015;82;21252;-41
2022/10/18 04:05:30;;;;;;;24.30;12.47;;;;;;;8.00;58.81;100676.39;1713509;83;21092;-42
2022/10/18 04:07:57;;;;;;;22.37;12.53;;;;;;;8.01;58.82;100682.04;1713698;83;20990;-42
2022/10/18 04:10:24;;;;;;;22.80;12.37;;;;;;;8.03;58.73;100682.54;1713603;83;21636;-42
2022/10/18 04:12:52;;;;;;;21.82;11.93;;;;;;;8.05;58.63;100678.95;1713389;83;21026;-42
2022/10/18 04:15:19;;;;;;;18.37;12.18;;;;;;;8.10;58.54;100678.27;1713537;83;21143;-42
2022/10/18 04:17:46;;;;;;;21.75;12.55;;;;;;;8.12;58.40;100675.27;1713363;83;21521;-42
2022/10/18 04:20:13;;;;;;;20.05;12.47;;;;;;;8.12;58.43;100673.38;1713644;83;20977;-41
2022/10/18 04:22:39;;;;;;;18.30;11.68;;;;;;;8.11;58.49;100668.27;1713762;83;21570;-42
2022/10/18 04:25:08;;;;;;;20.30;12.65;;;;;;;8.12;58.42;100665.81;1713625;83;21100;-42
2022/10/18 04:27:35;;;;;;;18.57;11.85;;;;;;;8.09;58.39;100655.06;1713670;82;21228;-42
2022/10/18 04:30:03;;;;;;;23.67;12.00;;;;;;;8.07;58.44;100655.15;1713908;83;20977;-42
2022/10/18 04:32:33;;;;;;;21.75;12.35;;;;;;;8.03;58.53;100653.63;1713819;82;21483;-42
2022/10/18 04:35:02;;;;;;;20.45;10.90;;;;;;;8.00;58.58;100655.59;1713748;83;20985;-42
2022/10/18 04:37:29;;;;;;;24.85;13.08;;;;;;;8.03;58.47;100657.68;1714085;82;21001;-42
2022/10/18 04:39:55;;;;;;;19.20;12.25;;;;;;;8.03;58.48;100646.08;1713746;83;21248;-42
2022/10/18 04:42:22;;;;;;;20.48;12.18;;;;;;;8.01;58.50;100647.73;1713757;82;20934;-42
2022/10/18 04:44:50;;;;;;;17.17;11.10;;;;;;;8.00;58.54;100652.08;1720697;82;21002;-42
2022/10/18 04:47:17;;;;;;;21.00;12.37;;;;;;;8.02;58.63;100648.53;1726834;83;21076;-42
2022/10/18 04:49:46;;;;;;;19.32;12.30;;;;;;;8.03;58.49;100652.28;1726919;83;21040;-42
2022/10/18 04:52:13;;;;;;;22.60;12.95;;;;;;;8.06;58.45;100648.95;1726940;83;21225;-42
2022/10/18 04:54:40;;;;;;;19.60;12.50;;;;;;;8.10;58.41;100645.86;1726761;83;21534;-42
2022/10/18 04:57:07;;;;;;;20.85;12.28;;;;;;;8.15;58.36;100640.87;1726691;83;21076;-42
2022/10/18 04:59:34;;;;;;;21.42;11.55;;;;;;;8.17;58.34;100638.13;1726790;83;21036;-42
2022/10/18 05:02:03;;;;;;;20.97;12.37;;;;;;;8.17;58.28;100640.82;1726797;82;21096;-42
2022/10/18 05:04:30;;;;;;;20.75;12.00;;;;;;;8.20;58.23;100639.39;1734789;82;21111;-42
2022/10/18 05:06:56;;;;;;;22.50;12.88;;;;;;;8.20;58.34;100636.13;1726604;83;21049;-42
2022/10/18 05:09:25;;;;;;;21.30;12.45;;;;;;;8.23;58.32;100634.15;1726644;83;20977;-42
2022/10/18 05:11:51;;;;;;;24.02;12.23;;;;;;;8.25;58.30;100627.89;1726590;82;21542;-42
2022/10/18 05:14:20;;;;;;;19.40;12.40;;;;;;;8.27;58.38;100624.34;1726635;82;20965;-42
2022/10/18 05:16:48;;;;;;;18.42;12.20;;;;;;;8.29;58.39;100623.48;1726616;82;21582;-42
2022/10/18 05:19:14;;;;;;;20.97;11.65;;;;;;;8.36;58.33;100628.98;1750831;81;21480;-42
2022/10/18 05:21:41;;;;;;;18.95;11.38;;;;;;;8.40;58.26;100631.30;1756838;81;21514;-42
2022/10/18 05:24:11;;;;;;;19.65;11.80;;;;;;;8.43;58.24;100633.37;1756708;81;21051;-42
2022/10/18 05:26:37;;;;;;;22.93;11.60;;;;;;;8.48;58.23;100634.57;1751927;81;21013;-42
2022/10/18 05:29:05;;;;;;;19.82;11.75;;;;;;;8.53;58.25;100628.47;1756622;81;21140;-42
2022/10/18 05:31:31;;;;;;;19.92;11.65;;;;;;;8.59;58.25;100629.12;1756698;81;20957;-42
2022/10/18 05:34:00;;;;;;;21.95;11.70;;;;;;;8.65;58.06;100623.81;1756645;81;20929;-42
2022/10/18 05:36:27;;;;;;;16.42;11.35;;;;;;;8.70;58.04;100625.82;1756897;81;21743;-42
2022/10/18 05:38:54;;;;;;;21.02;11.65;;;;;;;8.76;57.97;100631.88;1756686;81;21040;-42
2022/10/18 05:41:21;;;;;;;20.80;11.05;;;;;;;8.82;57.88;100630.59;1756515;81;23177;-42
2022/10/18 05:43:48;;;;;;;20.92;11.40;;;;;;;8.89;57.86;100630.13;1756558;81;21014;-42
2022/10/18 05:46:14;;;;;;;19.62;11.20;;;;;;;8.95;57.78;100639.13;1743870;81;20938;-42
2022/10/18 05:48:43;;;;;;;20.48;11.55;;;;;;;9.01;57.55;100636.48;1743601;81;21026;-42
2022/10/18 05:51:11;;;;;;;;;;;;;;;9.07;57.57;100636.58;1746311;81;21143;-42
2022/10/18 05:53:39;;;;;;;21.15;11.65;;;;;;;9.14;57.36;100642.88;1743554;82;21124;-42
2022/10/18 05:56:07;;;;;;;17.85;11.55;;;;;;;9.13;57.74;100646.13;1743517;82;21522;-42
2022/10/18 05:58:34;;;;;;;18.07;10.40;;;;;;;9.25;57.55;100650.09;1743576;81;20974;-42
2022/10/18 06:01:01;;;;;;;20.75;11.28;;;;;;;9.35;57.36;100649.22;1743716;81;21002;-42
2022/10/18 06:03:29;;;;;;;16.77;11.08;;;;;;;9.43;56.98;100647.64;1743347;82;21023;-42
2022/10/18 06:06:08;;;;;;;19.15;10.82;;;;;;;9.52;56.47;100645.16;1743358;82;21239;-42
2022/10/18 06:08:37;;;;;;;18.90;10.65;;;;;;;9.60;56.49;100648.40;1743770;82;20965;-42
2022/10/18 06:11:12;;;;;;;17.32;9.98;;;;;;;9.70;56.16;100652.69;1743558;82;20933;-42
2022/10/18 06:13:46;;;;;;;18.37;10.72;;;;;;;9.80;56.21;100648.84;1743390;82;21433;-42
2022/10/18 06:16:15;;;;;;;16.35;10.53;;;;;;;9.90;56.20;100646.58;1743279;81;21013;-42
2022/10/18 06:18:42;;;;;;;16.67;10.48;;;;;;;10.01;55.53;100653.25;1743256;82;21826;-42
2022/10/18 06:21:09;;;;;;;18.15;10.58;;;;;;;10.11;55.44;100646.69;1743402;81;20970;-42
2022/10/18 06:23:37;;;;;;;17.23;9.85;;;;;;;10.20;55.17;100643.96;1743339;81;21547;-42
2022/10/18 06:26:06;;;;;;;16.37;9.13;;;;;;;10.29;55.19;100644.72;1743314;81;21034;-42
2022/10/18 06:28:34;;;;;;;17.27;10.13;;;;;;;10.39;55.06;100637.57;1743237;82;21542;-42
2022/10/18 06:31:01;;;;;;;18.23;10.45;;;;;;;10.50;54.88;100635.29;1743543;82;21109;-42
2022/10/18 06:33:32;;;;;;;17.87;10.00;;;;;;;10.60;54.93;100637.63;1743161;81;21505;-42
2022/10/18 06:36:02;;;;;;;20.32;10.25;;;;;;;10.71;54.77;100631.48;1757715;81;21033;-42
2022/10/18 06:38:29;;;;;;;18.07;9.85;;;;;;;10.80;54.37;100625.42;1743576;81;20988;-42
2022/10/18 06:40:56;;;;;;;17.48;10.45;;;;;;;10.93;54.45;100626.87;1743496;82;21030;-42
2022/10/18 06:43:24;;;;;;;18.15;9.80;;;;;;;11.03;54.29;100627.84;1743332;82;21174;-42
2022/10/18 06:45:51;;;;;;;15.50;9.50;;;;;;;11.13;53.94;100624.16;1743076;82;20979;-42
2022/10/18 06:48:18;;;;;;;17.30;10.08;;;;;;;11.24;53.96;100624.53;1743357;82;21014;-42
2022/10/18 06:50:58;;;;;;;17.50;9.43;;;;;;;11.36;53.66;100622.44;1743259;81;21519;-42
2022/10/18 06:53:26;;;;;;;15.50;9.30;;;;;;;11.46;53.69;100613.31;1707581;83;20997;-42
2022/10/18 06:55:59;;;;;;;17.15;9.45;;;;;;;11.57;53.60;100613.11;1707695;84;21105;-42
2022/10/18 06:58:26;;;;;;;16.02;9.00;;;;;;;11.70;53.25;100612.03;1707580;84;21024;-42
2022/10/18 07:00:53;;;;;;;15.48;9.13;;;;;;;11.85;53.16;100609.26;1707803;84;20886;-42
2022/10/18 07:03:23;;;;;;;17.85;8.88;;;;;;;11.99;53.33;100605.66;1707694;84;20977;-42
2022/10/18 07:05:51;;;;;;;13.80;9.00;;;;;;;12.13;53.38;100601.23;1707831;84;21069;-42
2022/10/18 07:08:18;;;;;;;13.78;8.45;;;;;;;12.27;52.54;100597.61;1707805;84;21244;-42
2022/10/18 07:10:52;;;;;;;13.68;8.60;;;;;;;12.41;51.89;100595.91;1707881;84;20926;-42
2022/10/18 07:13:20;;;;;;;16.50;9.23;;;;;;;12.54;52.15;100596.91;1707665;84;21001;-42
2022/10/18 07:15:47;;;;;;;13.68;8.08;;;;;;;12.70;51.60;100598.36;1707908;84;21076;-42
2022/10/18 07:18:14;;;;;;;16.52;8.28;;;;;;;12.83;51.54;100595.06;1707766;84;20998;-42
2022/10/18 07:20:41;;;;;;;16.95;9.03;;;;;;;12.98;51.00;100596.47;1707729;84;21153;-42
2022/10/18 07:23:10;;;;;;;13.90;7.87;;;;;;;13.13;50.86;100592.25;1707705;84;21018;-42
2022/10/18 07:25:37;;;;;;;13.30;8.35;;;;;;;13.30;50.49;100589.25;1707664;84;21048;-42
2022/10/18 07:28:04;;;;;;;14.53;8.13;;;;;;;13.44;50.27;100584.75;1707643;84;21088;-42
2022/10/18 07:30:31;;;;;;;13.45;8.68;;;;;;;13.58;49.70;100587.05;1707805;84;21069;-42
2022/10/18 07:32:57;;;;;;;14.03;7.95;;;;;;;13.73;49.66;100586.28;1707716;84;21247;-42
2022/10/18 07:35:24;;;;;;;12.05;7.70;;;;;;;13.87;49.29;100579.83;1703758;82;21025;-42
2022/10/18 07:37:53;;;;;;;17.75;7.45;;;;;;;14.03;48.20;100577.10;1682007;85;21029;-42
2022/10/18 07:40:20;;;;;;;16.90;7.87;;;;;;;14.17;47.96;100583.69;1682024;85;21584;-42
2022/10/18 07:42:47;;;;;;;12.98;8.13;;;;;;;14.30;47.36;100581.64;1682154;85;21096;-42
2022/10/18 07:45:15;;;;;;;11.12;8.15;;;;;;;14.43;47.44;100570.86;1682761;84;21087;-42
2022/10/18 07:47:42;;;;;;;14.55;7.10;;;;;;;14.56;47.08;100572.34;1705702;84;21087;-42
2022/10/18 07:50:10;;;;;;;15.53;7.75;;;;;;;14.69;47.25;100563.45;1700442;84;21008;-42
2022/10/18 07:52:37;;;;;;;14.00;7.42;;;;;;;14.82;46.35;100562.73;1710113;84;20941;-42
2022/10/18 07:55:05;;;;;;;10.75;6.72;;;;;;;14.97;45.59;100561.30;1700434;84;21108;-42
2022/10/18 07:57:32;;;;;;;10.82;6.72;;;;;;;15.11;45.71;100558.06;1710350;83;21131;-42
2022/10/18 07:59:59;;;;;;;12.53;7.08;;;;;;;15.27;45.51;100555.24;1700258;84;22110;-42
2022/10/18 08:02:25;;;;;;;12.40;6.87;;;;;;;15.40;45.29;100549.25;1709976;83;21506;-42
2022/10/18 08:04:53;;;;;;;11.53;6.97;;;;;;;15.55;45.08;100551.12;1700337;84;21596;-42
2022/10/18 08:07:20;;;;;;;11.97;6.60;;;;;;;15.71;44.08;100548.84;1710082;83;21080;-42
2022/10/18 08:09:47;;;;;;;13.05;6.40;;;;;;;15.84;44.04;100546.92;1700432;84;23123;-42
2022/10/18 08:12:15;;;;;;;9.93;6.45;;;;;;;15.98;43.85;100543.05;1710352;83;20984;-42
2022/10/18 08:14:42;;;;;;;15.13;7.20;;;;;;;16.15;42.80;100540.97;1700550;84;20992;-42
2022/10/18 08:17:10;;;;;;;8.55;6.25;;;;;;;16.26;42.21;100537.24;1710147;83;21033;-42
2022/10/18 08:19:37;;;;;;;11.83;6.40;;;;;;;16.37;42.32;100532.69;1700621;84;21123;-42
2022/10/18 08:22:06;;;;;;;11.10;6.78;;;;;;;16.48;42.80;100530.11;1710315;83;21247;-42
2022/10/18 08:24:34;;;;;;;12.05;6.53;;;;;;;16.60;42.83;100519.55;1700476;84;21044;-42
2022/10/18 08:27:02;;;;;;;10.00;6.47;;;;;;;16.73;42.30;100526.36;1710122;83;20977;-42
2022/10/18 08:29:29;;;;;;;11.10;6.50;;;;;;;16.86;42.10;100520.84;1700496;84;20966;-43
2022/10/18 08:31:56;;;;;;;11.05;6.40;;;;;;;16.98;41.83;100519.23;1710122;83;21036;-42
2022/10/18 08:34:23;;;;;;;12.13;6.97;;;;;;;17.11;41.80;100517.02;1700567;84;21082;-42
2022/10/18 08:36:51;;;;;;;9.58;5.75;;;;;;;17.24;41.79;100522.44;1710006;83;20956;-42
2022/10/18 08:39:18;;;;;;;9.63;5.97;;;;;;;17.37;40.71;100504.58;1700775;84;21116;-42
2022/10/18 08:42:22;;;;;;;9.30;5.92;;;;;;;17.48;40.50;100503.28;1710141;83;21021;-42
2022/10/18 08:44:50;;;;;;;10.53;6.65;;;;;;;17.57;40.71;100500.42;1698320;84;21028;-42
2022/10/18 08:47:24;;;;;;;13.20;6.45;;;;;;;17.68;40.21;100501.34;1720430;83;21263;-42
2022/10/18 08:49:56;;;;;;;10.60;6.42;;;;;;;17.79;39.99;100495.95;1690383;84;21503;-42
2022/10/18 08:53:21;;;;;;;11.78;6.17;;;;;;;17.91;39.81;100492.13;1720354;83;21008;-42
2022/10/18 08:55:53;;;;;;;8.08;5.80;;;;;;;18.01;40.48;100491.42;1691542;84;21652;-42
2022/10/18 08:58:28;;;;;;;8.95;6.05;;;;;;;18.15;39.44;100489.53;1691816;84;21522;-42
2022/10/18 09:01:23;;;;;;;9.08;5.70;;;;;;;18.28;39.55;100483.73;1691730;84;21229;-43
2022/10/18 09:04:19;;;;;;;8.95;6.42;;;;;;;18.40;39.74;100479.27;1691632;84;21037;-42
2022/10/18 09:07:24;;;;;;;10.20;5.90;;;;;;;18.54;38.96;100480.77;1691710;84;21015;-42
2022/10/18 09:10:47;;;;;;;10.65;5.65;;;;;;;18.64;38.96;100473.92;1691744;84;20996;-42
2022/10/18 09:13:36;;;;;;;10.15;6.17;;;;;;;18.78;38.96;100464.97;1691902;84;21041;-42
2022/10/18 09:16:07;;;;;;;7.05;5.30;;;;;;;18.92;38.40;100455.39;1692028;84;21258;-42
2022/10/18 09:18:48;;;;;;;8.35;6.12;;;;;;;19.04;37.80;100448.72;1691789;84;21019;-42
2022/10/18 09:21:21;;;;;;;9.55;6.42;;;;;;;19.13;38.34;100453.84;1691701;84;21004;-42
2022/10/18 09:24:12;;;;;;;8.03;5.47;;;;;;;19.26;37.73;100450.34;1692072;84;21060;-43
2022/10/18 09:26:48;;;;;;;10.15;5.22;;;;;;;19.39;37.67;100444.64;1691721;84;21060;-42
2022/10/18 09:29:36;;;;;;;10.70;5.10;;;;;;;19.54;37.31;100438.59;1691953;84;21167;-43
2022/10/18 09:32:09;;;;;;;10.03;5.87;;;;;;;19.68;37.96;100439.95;1692127;84;20971;-42
2022/10/18 09:37:16;;;;;;;7.60;5.12;;;;;;;19.99;37.13;100421.83;1851815;76;22687;-42
2022/10/18 09:39:43;;;;;;;6.10;5.03;;;;;;;20.13;36.84;100420.41;1822352;78;20944;-43
2022/10/18 09:42:32;;;;;;;7.85;5.50;;;;;;;20.23;36.26;100420.97;1821993;78;21226;-43
2022/10/18 09:45:24;;;;;;;8.50;5.33;;;;;;;20.30;35.74;100403.06;1822220;78;21757;-43
2022/10/18 09:48:08;;;;;;;7.08;4.72;;;;;;;20.42;35.73;100412.07;1821997;78;20949;-42
2022/10/18 09:50:55;;;;;;;10.25;5.30;;;;;;;20.50;35.08;100408.09;1822065;78;20996;-42
2022/10/18 09:54:01;;;;;;;8.85;5.67;;;;;;;20.55;35.48;100389.77;1809592;78;20909;-43
2022/10/18 09:56:50;;;;;;;10.85;5.72;;;;;;;20.65;35.62;100394.44;1816999;78;21179;-43
2022/10/18 09:59:36;;;;;;;7.40;5.28;;;;;;;20.79;35.37;100393.76;1821910;78;20932;-43
2022/10/18 10:02:04;;;;;;;7.80;5.42;;;;;;;20.95;35.02;100385.00;1816347;78;20960;-43
2022/10/18 10:04:31;;;;;;;10.08;5.65;;;;;;;21.08;34.50;100379.77;1821997;78;20984;-43
2022/10/18 10:07:00;;;;;;;10.50;5.75;;;;;;;21.18;34.87;100380.32;1821848;78;21033;-43
2022/10/18 10:09:30;;;;;;;10.03;6.00;;;;;;;21.29;34.74;100374.72;1822183;78;21216;-43
2022/10/18 10:11:57;;;;;;;7.78;5.80;;;;;;;21.36;34.38;100368.53;1822182;78;20922;-43
2022/10/18 10:14:29;;;;;;;9.70;5.60;;;;;;;21.43;34.06;100372.62;1822035;78;20956;-43
2022/10/18 10:17:07;;;;;;;11.25;5.60;;;;;;;21.46;33.71;100362.14;1822187;78;20922;-43
2022/10/18 10:20:00;;;;;;;8.75;5.10;;;;;;;21.50;34.29;100364.86;1790631;78;21059;-43
2022/10/18 10:22:36;;;;;;;11.12;5.42;;;;;;;21.55;34.11;100356.13;1822252;78;21052;-43
2022/10/18 10:25:04;;;;;;;7.65;4.62;;;;;;;21.60;33.73;100348.80;1822085;78;20929;-43
2022/10/18 10:27:42;;;;;;;9.20;4.87;;;;;;;21.66;33.97;100347.16;1822665;78;20988;-43
2022/10/18 10:30:22;;;;;;;8.38;5.20;;;;;;;21.74;33.36;100347.27;1821818;78;21028;-43
2022/10/18 10:32:50;;;;;;;8.13;4.80;;;;;;;21.83;33.67;100332.39;1797000;78;21044;-43
2022/10/18 10:35:37;;;;;;;6.58;4.47;;;;;;;21.89;33.04;100329.34;1821963;78;20985;-43
2022/10/18 10:38:04;;;;;;;7.45;5.15;;;;;;;21.94;32.88;100323.41;1821533;78;20948;-43
2022/10/18 10:40:38;;;;;;;9.60;4.87;;;;;;;22.03;33.06;100326.44;1813235;78;21005;-43
2022/10/18 10:43:32;;;;;;;7.65;4.83;;;;;;;22.13;32.55;100335.00;1766168;80;21550;-43
2022/10/18 10:46:12;;;;;;;7.03;5.05;;;;;;;22.20;32.71;100313.61;1793901;80;21079;-43
2022/10/18 10:48:50;;;;;;;9.03;4.92;;;;;;;22.31;32.70;100315.64;1793203;79;21048;-43
2022/10/18 10:51:36;;;;;;;6.60;4.95;;;;;;;22.42;32.57;100309.34;1774938;80;20972;-43
2022/10/18 10:54:20;;;;;;;7.37;5.00;;;;;;;22.55;32.46;100305.43;1793295;79;21029;-43
2022/10/18 10:56:54;;;;;;;7.33;4.45;;;;;;;22.59;32.42;100306.75;1788198;80;21526;-43
2022/10/18 10:59:23;;;;;;;7.17;4.22;;;;;;;22.59;32.02;100306.16;1793342;80;20925;-43
2022/10/18 11:01:50;;;;;;;6.42;4.28;;;;;;;22.65;32.43;100294.81;1793244;80;21293;-43
2022/10/18 11:04:29;;;;;;;6.33;4.70;;;;;;;22.70;31.72;100292.99;1728849;81;20955;-43
2022/10/18 11:07:21;;;;;;;5.65;4.50;;;;;;;22.74;31.65;100286.80;1741347;82;20929;-43
2022/10/18 11:09:59;;;;;;;5.05;3.80;;;;;;;22.82;31.74;100285.48;1758031;81;21443;-43
2022/10/18 11:12:37;;;;;;;6.60;4.85;;;;;;;22.86;31.84;100282.05;1741772;82;21036;-43
2022/10/18 11:15:23;;;;;;;6.47;4.40;;;;;;;22.93;31.88;100277.80;1752797;81;21372;-43
2022/10/18 11:18:03;;;;;;;5.37;3.85;;;;;;;23.02;31.17;100279.23;1758147;81;21027;-43
2022/10/18 11:20:39;;;;;;;8.73;4.35;;;;;;;23.10;31.15;100269.59;1741757;82;20930;-43
2022/10/18 11:23:14;;;;;;;7.47;4.25;;;;;;;23.17;31.00;100268.09;1758242;81;20972;-43
2022/10/18 11:26:04;;;;;;;6.25;4.17;;;;;;;23.25;30.87;100267.53;1747643;82;21100;-43
2022/10/18 11:29:00;;;;;;;5.90;4.70;;;;;;;23.34;30.87;100262.23;1746955;82;21091;-43
2022/10/18 11:31:40;;;;;;;5.65;4.20;;;;;;;23.44;30.85;100250.77;1757866;81;20951;-43
2022/10/18 11:34:19;;;;;;;;;;;;;;;23.57;30.78;100248.98;1740182;82;20997;-43
2022/10/18 11:37:13;;;;;;;8.10;4.47;;;;;;;23.74;30.01;100241.51;1732448;82;20161;-43
2022/10/18 11:39:59;;;;;;;5.67;4.08;;;;;;;23.81;30.39;100235.83;1732812;82;20977;-43
2022/10/18 11:42:50;;;;;;;7.08;4.20;;;;;;;24.04;29.70;100233.55;1732343;82;21096;-43
2022/10/18 11:45:46;;;;;;;6.45;3.95;;;;;;;24.27;29.46;100234.83;1732702;82;21554;-43
2022/10/18 11:48:41;;;;;;;7.90;4.08;;;;;;;24.48;29.04;100221.86;1732772;82;21034;-43